createdAt,value
2019-05-12T00:00:40.486Z,5.32
2019-05-12T00:03:09.061Z,5.32
2019-05-12T00:05:38.280Z,5.24
2019-05-12T00:08:08.285Z,5.15
2019-05-12T00:10:38.702Z,5.30
2019-05-12T00:13:08.394Z,5.33
2019-05-12T00:15:38.434Z,5.29
2019-05-12T00:18:09.135Z,5.44
2019-05-12T00:20:38.633Z,5.54
2019-05-12T00:23:22.793Z,5.67
2019-05-12T00:25:38.704Z,5.87
2019-05-12T00:28:07.916Z,6.06
2019-05-12T00:30:43.024Z,6.06
2019-05-12T00:33:11.824Z,5.99
2019-05-12T00:35:40.488Z,6.04
2019-05-12T00:38:09.514Z,6.11
2019-05-12T00:40:39.497Z,5.92
2019-05-12T00:43:09.077Z,6.17
2019-05-12T00:45:38.580Z,5.95
2019-05-12T00:48:09.180Z,5.89
2019-05-12T00:50:38.533Z,5.77
2019-05-12T00:53:09.165Z,5.61
2019-05-12T00:55:38.484Z,5.60
2019-05-12T00:58:08.507Z,5.51
2019-05-12T01:00:40.693Z,5.23
2019-05-12T01:03:08.900Z,5.28
2019-05-12T01:05:38.500Z,5.22
2019-05-12T01:08:09.240Z,5.19
2019-05-12T01:10:39.021Z,5.02
2019-05-12T01:13:08.771Z,4.95
2019-05-12T01:15:38.009Z,4.95
2019-05-12T01:18:09.159Z,5.02
2019-05-12T01:20:38.864Z,4.93
2019-05-12T01:23:08.528Z,4.94
2019-05-12T01:25:39.432Z,4.86
2019-05-12T01:28:08.508Z,4.86
2019-05-12T01:30:38.982Z,4.84
2019-05-12T01:33:08.709Z,4.80
2019-05-12T01:35:38.834Z,4.83
2019-05-12T01:38:08.314Z,4.83
2019-05-12T01:40:39.375Z,4.76
2019-05-12T01:43:08.751Z,4.78
2019-05-12T01:45:38.099Z,4.86
2019-05-12T01:48:08.710Z,4.84
2019-05-12T01:50:38.600Z,4.93
2019-05-12T01:53:08.479Z,4.91
2019-05-12T01:55:38.572Z,4.85
2019-05-12T01:58:08.425Z,4.87
2019-05-12T02:00:38.840Z,4.91
2019-05-12T02:03:09.135Z,4.96
2019-05-12T02:08:30.872Z,5.21
2019-05-12T02:11:28.855Z,5.21
2019-05-12T02:13:58.006Z,5.28
2019-05-12T02:16:28.178Z,5.34
2019-05-12T02:18:58.306Z,5.32
2019-05-12T02:21:27.954Z,5.42
2019-05-12T02:23:58.310Z,5.50
2019-05-12T02:26:29.070Z,5.63
2019-05-12T02:28:58.579Z,5.61
2019-05-12T02:31:29.377Z,5.72
2019-05-12T02:33:57.685Z,5.67
2019-05-12T02:36:26.308Z,5.65
2019-05-12T02:38:56.002Z,5.73
2019-05-12T02:41:25.937Z,5.68
2019-05-12T02:43:55.515Z,5.63
2019-05-12T02:46:25.545Z,5.66
2019-05-12T02:48:54.791Z,5.68
2019-05-12T02:51:24.889Z,5.65
2019-05-12T02:53:54.723Z,5.61
2019-05-12T02:56:25.710Z,5.58
2019-05-12T02:58:55.553Z,5.52
2019-05-12T03:01:27.344Z,5.50
2019-05-12T03:03:57.288Z,5.47
2019-05-12T03:06:27.923Z,5.45
2019-05-12T03:09:04.527Z,5.48
2019-05-12T03:11:31.842Z,5.56
2019-05-12T03:14:00.450Z,5.54
2019-05-12T03:16:29.004Z,5.54
2019-05-12T03:18:57.526Z,5.55
2019-05-12T03:21:26.098Z,5.50
2019-05-12T03:23:55.266Z,5.50
2019-05-12T03:26:24.833Z,5.54
2019-05-12T03:28:55.495Z,5.56
2019-05-12T03:31:31.109Z,5.59
2019-05-12T03:34:00.181Z,5.52
2019-05-12T03:36:32.049Z,5.52
2019-05-12T03:38:55.836Z,5.51
2019-05-12T03:41:25.234Z,5.60
2019-05-12T03:43:54.978Z,5.58
2019-05-12T03:46:24.888Z,5.61
2019-05-12T03:48:55.310Z,5.60
2019-05-12T03:54:05.455Z,5.82
2019-05-12T03:56:34.847Z,5.72
2019-05-12T03:59:05.012Z,5.69
2019-05-12T04:01:36.268Z,5.69
2019-05-12T04:04:05.373Z,5.65
2019-05-12T04:06:34.800Z,5.76
2019-05-12T04:09:06.335Z,5.77
2019-05-12T04:11:35.775Z,5.78
2019-05-12T04:14:05.602Z,5.74
2019-05-12T04:16:36.347Z,5.88
2019-05-12T04:19:05.778Z,5.89
2019-05-12T04:21:35.456Z,5.83
2019-05-12T04:24:05.386Z,5.87
2019-05-12T04:26:36.406Z,6.01
2019-05-12T04:29:05.645Z,6.17
2019-05-12T04:31:35.140Z,6.06
2019-05-12T04:34:05.184Z,6.04
2019-05-12T04:36:35.500Z,6.04
2019-05-12T04:39:05.940Z,6.07
2019-05-12T04:41:35.590Z,5.95
2019-05-12T04:44:05.806Z,6.06
2019-05-12T04:46:34.946Z,6.08
2019-05-12T04:49:05.198Z,6.16
2019-05-12T04:51:35.150Z,6.15
2019-05-12T04:54:05.775Z,6.10
2019-05-12T04:56:35.748Z,6.20
2019-05-12T04:59:05.298Z,6.26
2019-05-12T05:01:34.837Z,6.23
2019-05-12T05:04:05.439Z,6.33
2019-05-12T05:06:34.642Z,6.41
2019-05-12T05:09:06.439Z,6.24
2019-05-12T05:11:35.307Z,6.35
2019-05-12T05:14:04.439Z,6.53
2019-05-12T05:16:34.656Z,6.49
2019-05-12T05:19:03.783Z,6.44
2019-05-12T05:21:34.483Z,6.37
2019-05-12T05:24:03.840Z,6.40
2019-05-12T05:26:36.982Z,6.40
2019-05-12T05:29:04.336Z,6.49
2019-05-12T05:31:33.839Z,6.57
2019-05-12T05:34:04.797Z,6.62
2019-05-12T05:36:34.616Z,6.62
2019-05-12T05:39:05.947Z,6.71
2019-05-12T05:41:34.699Z,6.84
2019-05-12T05:44:03.427Z,6.87
2019-05-12T05:46:33.708Z,6.95
2019-05-12T05:49:04.184Z,6.96
2019-05-12T05:51:33.624Z,7.20
2019-05-12T05:54:03.998Z,7.06
2019-05-12T05:56:42.201Z,6.93
2019-05-12T05:59:04.607Z,7.07
2019-05-12T06:01:34.745Z,7.21
2019-05-12T06:04:08.361Z,7.24
2019-05-12T06:06:34.340Z,7.38
2019-05-12T06:09:05.906Z,7.31
2019-05-12T06:11:34.721Z,7.30
2019-05-12T06:14:11.572Z,7.23
2019-05-12T06:16:34.227Z,7.36
2019-05-12T06:19:03.480Z,7.47
2019-05-12T06:21:36.817Z,7.64
2019-05-12T06:24:03.671Z,8.12
2019-05-12T06:26:35.301Z,8.05
2019-05-12T06:29:04.384Z,7.86
2019-05-12T06:31:35.012Z,7.70
2019-05-12T06:34:05.965Z,7.76
2019-05-12T06:36:34.339Z,7.71
2019-05-12T06:39:10.353Z,7.67
2019-05-12T06:41:37.895Z,7.85
2019-05-12T06:44:08.806Z,8.25
2019-05-12T06:46:37.845Z,8.40
2019-05-12T06:49:12.611Z,9.01
2019-05-12T06:51:37.193Z,9.35
2019-05-12T06:54:10.489Z,9.94
2019-05-12T06:56:36.194Z,9.87
2019-05-12T06:59:09.771Z,9.93
2019-05-12T07:01:35.268Z,10.33
2019-05-12T07:04:06.648Z,10.16
2019-05-12T07:06:34.390Z,10.65
2019-05-12T07:09:09.835Z,10.35
2019-05-12T07:11:44.955Z,9.93
2019-05-12T07:14:13.023Z,9.63
2019-05-12T07:16:37.606Z,9.88
2019-05-12T07:19:16.128Z,9.94
2019-05-12T07:21:36.582Z,10.23
2019-05-12T07:24:06.613Z,10.44
2019-05-12T07:26:35.543Z,10.61
2019-05-12T07:29:04.540Z,10.95
2019-05-12T07:31:33.698Z,10.97
2019-05-12T07:34:06.926Z,11.08
2019-05-12T07:36:33.570Z,11.47
2019-05-12T07:39:08.319Z,11.84
2019-05-12T07:41:42.373Z,12.39
2019-05-12T07:44:07.873Z,12.09
2019-05-12T07:46:39.820Z,12.68
2019-05-12T07:49:06.935Z,13.27
2019-05-12T07:51:40.348Z,12.97
2019-05-12T07:54:05.932Z,12.01
2019-05-12T07:56:35.755Z,11.63
2019-05-12T07:59:04.641Z,10.92
2019-05-12T08:01:35.754Z,11.01
2019-05-12T08:04:04.537Z,11.91
2019-05-12T08:06:41.286Z,13.30
2019-05-12T08:09:05.759Z,15.17
2019-05-12T08:11:38.581Z,16.03
2019-05-12T08:14:05.121Z,14.59
2019-05-12T08:16:37.020Z,14.61
2019-05-12T08:19:07.919Z,14.00
2019-05-12T08:21:43.746Z,14.67
2019-05-12T08:24:06.338Z,14.75
2019-05-12T08:26:34.923Z,14.13
2019-05-12T08:29:04.380Z,15.65
2019-05-12T08:31:40.093Z,17.27
2019-05-12T08:34:04.399Z,18.01
2019-05-12T08:36:33.532Z,18.01
2019-05-12T08:39:06.195Z,16.90
2019-05-12T08:41:35.883Z,13.89
2019-05-12T08:44:04.817Z,13.26
2019-05-12T08:46:34.394Z,12.29
2019-05-12T08:49:05.424Z,11.80
2019-05-12T08:51:34.403Z,11.93
2019-05-12T08:54:07.883Z,13.74
2019-05-12T08:56:33.655Z,15.71
2019-05-12T08:59:04.370Z,16.21
2019-05-12T09:01:34.332Z,15.39
2019-05-12T09:04:06.593Z,15.57
2019-05-12T09:06:34.506Z,15.36
2019-05-12T09:09:06.255Z,16.90
2019-05-12T09:11:35.263Z,15.30
2019-05-12T09:14:05.870Z,14.73
2019-05-12T09:16:34.548Z,14.09
2019-05-12T09:19:04.854Z,13.17
2019-05-12T09:21:36.577Z,12.74
2019-05-12T09:24:04.446Z,13.39
2019-05-12T09:26:34.372Z,12.74
2019-05-12T09:29:03.595Z,13.17
2019-05-12T09:31:33.591Z,13.57
2019-05-12T09:34:11.058Z,14.12
2019-05-12T09:36:33.857Z,14.06
2019-05-12T09:39:06.008Z,14.72
2019-05-12T09:41:42.727Z,14.99
2019-05-12T09:44:05.244Z,15.19
2019-05-12T09:46:37.491Z,15.22
2019-05-12T09:49:04.308Z,14.80
2019-05-12T09:51:41.028Z,16.71
2019-05-12T09:54:05.256Z,18.02
2019-05-12T09:56:34.309Z,16.62
2019-05-12T09:59:17.101Z,18.08
2019-05-12T10:01:35.318Z,16.87
2019-05-12T10:04:04.327Z,14.98
2019-05-12T10:06:34.030Z,15.58
2019-05-12T10:09:08.708Z,16.03
2019-05-12T10:11:35.665Z,16.96
2019-05-12T10:14:06.496Z,17.50
2019-05-12T10:16:39.351Z,18.34
2019-05-12T10:19:05.696Z,15.75
2019-05-12T10:21:36.000Z,16.00
2019-05-12T10:24:05.179Z,16.35
2019-05-12T10:26:34.355Z,18.52
2019-05-12T10:29:16.567Z,19.13
2019-05-12T10:31:35.635Z,18.37
2019-05-12T10:34:19.448Z,17.81
2019-05-12T10:36:49.325Z,16.46
2019-05-12T10:39:18.489Z,16.91
2019-05-12T10:41:47.417Z,17.68
2019-05-12T10:44:16.200Z,19.24
2019-05-12T10:46:46.660Z,20.35
2019-05-12T10:49:15.281Z,21.25
2019-05-12T10:51:47.429Z,20.72
2019-05-12T10:54:15.665Z,19.64
2019-05-12T10:56:44.646Z,17.61
2019-05-12T10:59:13.426Z,15.25
2019-05-12T11:01:47.197Z,14.75
2019-05-12T11:04:14.335Z,14.69
2019-05-12T11:06:44.737Z,14.89
2019-05-12T11:09:13.962Z,15.14
2019-05-12T11:11:46.820Z,16.11
2019-05-12T11:14:14.259Z,17.07
2019-05-12T11:16:44.573Z,16.07
2019-05-12T11:19:13.792Z,16.50
2019-05-12T11:21:44.268Z,15.31
2019-05-12T11:24:13.801Z,16.13
2019-05-12T11:26:43.295Z,18.86
2019-05-12T11:29:14.000Z,18.74
2019-05-12T11:31:44.170Z,17.29
2019-05-12T11:34:12.749Z,19.90
2019-05-12T11:36:43.604Z,19.84
2019-05-12T11:39:14.105Z,17.76
2019-05-12T11:41:44.310Z,16.45
2019-05-12T11:44:13.301Z,16.29
2019-05-12T11:46:44.158Z,16.31
2019-05-12T11:49:13.805Z,14.85
2019-05-12T11:51:42.796Z,14.92
2019-05-12T11:54:13.691Z,14.63
2019-05-12T11:56:46.575Z,14.60
2019-05-12T11:59:13.806Z,15.37
2019-05-12T12:01:45.607Z,15.55
2019-05-12T12:04:14.367Z,17.76
2019-05-12T12:06:43.833Z,19.38
2019-05-12T12:09:17.041Z,18.00
2019-05-12T12:11:43.395Z,18.14
2019-05-12T12:14:13.846Z,18.14
2019-05-12T12:16:50.240Z,18.07
2019-05-12T12:19:12.857Z,20.62
2019-05-12T12:21:46.130Z,19.29
2019-05-12T12:24:13.197Z,19.77
2019-05-12T12:26:44.275Z,20.30
2019-05-12T12:29:13.678Z,20.89
2019-05-12T12:31:52.520Z,21.54
2019-05-12T12:34:25.364Z,20.72
2019-05-12T12:36:54.174Z,20.48
2019-05-12T12:39:23.770Z,18.73
2019-05-12T12:41:56.094Z,19.62
2019-05-12T12:44:24.231Z,19.84
2019-05-12T12:46:59.892Z,17.11
2019-05-12T12:49:23.508Z,17.50
2019-05-12T12:51:52.147Z,17.14
2019-05-12T12:54:20.690Z,18.11
2019-05-12T12:56:49.244Z,18.07
2019-05-12T12:59:17.792Z,19.80
2019-05-12T13:01:46.339Z,19.37
2019-05-12T13:04:15.041Z,20.88
2019-05-12T13:06:43.889Z,20.60
2019-05-12T13:09:18.408Z,19.40
2019-05-12T13:11:44.482Z,17.18
2019-05-12T13:14:13.553Z,17.74
2019-05-12T13:16:43.695Z,18.58
2019-05-12T13:19:16.940Z,19.56
2019-05-12T13:21:43.940Z,20.40
2019-05-12T13:24:12.523Z,21.70
2019-05-12T13:26:41.066Z,19.77
2019-05-12T13:29:13.453Z,19.10
2019-05-12T13:31:46.402Z,18.82
2019-05-12T13:34:14.335Z,16.64
2019-05-12T13:36:44.046Z,16.16
2019-05-12T13:39:16.393Z,15.72
2019-05-12T13:41:43.772Z,15.17
2019-05-12T13:44:13.712Z,15.29
2019-05-12T13:46:43.567Z,15.52
2019-05-12T13:49:14.034Z,15.17
2019-05-12T13:51:43.109Z,14.98
2019-05-12T13:54:14.566Z,14.90
2019-05-12T13:56:44.353Z,14.74
2019-05-12T13:59:20.704Z,14.66
2019-05-12T14:01:45.688Z,14.24
2019-05-12T14:04:14.530Z,17.15
2019-05-12T14:06:43.357Z,18.07
2019-05-12T14:09:13.581Z,20.27
2019-05-12T14:11:43.676Z,18.05
2019-05-12T14:14:15.554Z,18.08
2019-05-12T14:16:52.044Z,16.58
2019-05-12T14:19:14.545Z,15.72
2019-05-12T14:21:43.205Z,16.30
2019-05-12T14:24:13.913Z,16.07
2019-05-12T14:26:47.561Z,15.03
2019-05-12T14:29:13.833Z,15.37
2019-05-12T14:31:51.102Z,15.60
2019-05-12T14:34:19.298Z,14.83
2019-05-12T14:36:44.263Z,14.64
2019-05-12T14:39:13.345Z,14.56
2019-05-12T14:41:44.500Z,14.52
2019-05-12T14:44:13.821Z,13.95
2019-05-12T14:46:46.302Z,14.00
2019-05-12T14:49:14.158Z,13.53
2019-05-12T14:51:44.343Z,13.49
2019-05-12T14:54:13.536Z,13.38
2019-05-12T14:56:44.877Z,13.75
2019-05-12T14:59:14.450Z,13.73
2019-05-12T15:01:53.609Z,13.79
2019-05-12T15:04:13.953Z,13.87
2019-05-12T15:06:44.340Z,14.17
2019-05-12T15:09:19.569Z,14.34
2019-05-12T15:11:43.848Z,14.24
2019-05-12T15:14:13.751Z,14.17
2019-05-12T15:16:44.801Z,14.11
2019-05-12T15:19:13.989Z,14.33
2019-05-12T15:21:43.670Z,13.96
2019-05-12T15:24:15.237Z,13.90
2019-05-12T15:26:43.363Z,14.24
2019-05-12T15:29:18.042Z,14.14
2019-05-12T15:31:53.389Z,13.58
2019-05-12T15:34:14.265Z,13.40
2019-05-12T15:36:51.657Z,13.31
2019-05-12T15:39:14.181Z,13.24
2019-05-12T15:41:42.823Z,13.63
2019-05-12T15:44:14.334Z,13.20
2019-05-12T15:46:45.983Z,13.28
2019-05-12T15:49:13.261Z,13.28
2019-05-12T15:51:50.901Z,13.37
2019-05-12T15:54:14.617Z,13.36
2019-05-12T15:56:43.243Z,13.58
2019-05-12T15:59:14.597Z,13.62
2019-05-12T16:01:43.991Z,13.84
2019-05-12T16:04:15.086Z,13.71
2019-05-12T16:06:52.879Z,13.71
2019-05-12T16:09:13.967Z,14.03
2019-05-12T16:11:42.575Z,13.86
2019-05-12T16:14:11.128Z,14.37
2019-05-12T16:16:42.577Z,14.14
2019-05-12T16:19:10.199Z,13.96
2019-05-12T16:21:39.320Z,13.79
2019-05-12T16:24:12.533Z,13.98
2019-05-12T16:26:45.347Z,14.06
2019-05-12T16:29:09.101Z,14.44
2019-05-12T16:31:39.545Z,14.22
2019-05-12T16:34:08.232Z,14.10
2019-05-12T16:36:41.175Z,14.23
2019-05-12T16:39:07.876Z,14.24
2019-05-12T16:41:36.714Z,14.44
2019-05-12T16:44:07.813Z,14.44
2019-05-12T16:46:35.983Z,14.59
2019-05-12T16:49:04.730Z,14.68
2019-05-12T16:51:33.424Z,14.29
2019-05-12T16:54:03.649Z,14.20
2019-05-12T16:56:33.891Z,13.68
2019-05-12T16:59:07.293Z,13.50
2019-05-12T17:01:33.549Z,13.55
2019-05-12T17:04:04.197Z,13.51
2019-05-12T17:06:35.171Z,13.46
2019-05-12T17:09:05.830Z,13.56
2019-05-12T17:11:37.425Z,13.48
2019-05-12T17:14:05.397Z,13.25
2019-05-12T17:16:41.890Z,13.23
2019-05-12T17:19:10.256Z,13.39
2019-05-12T17:21:35.753Z,13.65
2019-05-12T17:24:04.317Z,13.58
2019-05-12T17:26:33.474Z,13.65
2019-05-12T17:29:02.235Z,13.49
2019-05-12T17:31:33.639Z,13.19
2019-05-12T17:34:08.140Z,13.31
2019-05-12T17:36:34.390Z,13.34
2019-05-12T17:39:05.828Z,13.34
2019-05-12T17:41:40.534Z,13.27
2019-05-12T17:44:05.074Z,13.07
2019-05-12T17:46:38.013Z,12.95
2019-05-12T17:49:05.180Z,12.92
2019-05-12T17:51:34.032Z,13.00
2019-05-12T17:54:06.944Z,12.99
2019-05-12T17:56:38.566Z,12.98
2019-05-12T17:59:04.878Z,13.02
2019-05-12T18:01:35.540Z,13.05
2019-05-12T18:04:04.511Z,13.04
2019-05-12T18:06:34.096Z,13.22
2019-05-12T18:09:09.182Z,13.22
2019-05-12T18:11:36.572Z,13.30
2019-05-12T18:14:07.190Z,13.45
2019-05-12T18:16:35.722Z,13.45
2019-05-12T18:19:09.105Z,13.28
2019-05-12T18:21:34.822Z,13.26
2019-05-12T18:24:06.779Z,13.12
2019-05-12T18:26:34.587Z,13.12
2019-05-12T18:29:04.134Z,12.94
2019-05-12T18:31:33.475Z,12.82
2019-05-12T18:34:04.783Z,12.82
2019-05-12T18:36:34.220Z,12.96
2019-05-12T18:39:11.281Z,12.97
2019-05-12T18:41:35.969Z,12.76
2019-05-12T18:44:04.738Z,12.70
2019-05-12T18:46:36.130Z,12.65
2019-05-12T18:49:12.007Z,12.69
2019-05-12T18:51:34.709Z,12.73
2019-05-12T18:54:09.530Z,12.53
2019-05-12T18:56:33.911Z,12.44
2019-05-12T18:59:11.441Z,12.34
2019-05-12T19:01:33.600Z,12.26
2019-05-12T19:04:03.796Z,12.10
2019-05-12T19:06:33.820Z,12.29
2019-05-12T19:09:05.214Z,11.97
2019-05-12T19:11:41.592Z,11.89
2019-05-12T19:14:04.660Z,11.66
2019-05-12T19:16:33.315Z,11.48
2019-05-12T19:19:04.167Z,11.23
2019-05-12T19:21:32.426Z,11.17
2019-05-12T19:24:03.332Z,11.31
2019-05-12T19:26:32.980Z,11.07
2019-05-12T19:29:03.966Z,11.12
2019-05-12T19:31:33.385Z,11.26
2019-05-12T19:34:18.352Z,11.20
2019-05-12T19:36:36.066Z,11.20
2019-05-12T19:39:06.145Z,10.99
2019-05-12T19:41:36.363Z,10.91
2019-05-12T19:44:05.348Z,10.77
2019-05-12T19:46:34.220Z,10.82
2019-05-12T19:49:04.508Z,10.72
2019-05-12T19:51:34.545Z,10.76
2019-05-12T19:54:05.618Z,10.71
2019-05-12T19:56:39.050Z,10.64
2019-05-12T19:59:04.900Z,10.64
2019-05-12T20:01:34.518Z,10.73
2019-05-12T20:04:03.749Z,10.58
2019-05-12T20:06:33.582Z,10.59
2019-05-12T20:09:08.310Z,10.33
2019-05-12T20:11:35.556Z,10.26
2019-05-12T20:14:04.349Z,10.12
2019-05-12T20:16:34.677Z,10.09
2019-05-12T20:19:04.297Z,10.15
2019-05-12T20:21:34.007Z,10.11
2019-05-12T20:24:03.745Z,10.09
2019-05-12T20:26:37.739Z,9.86
2019-05-12T20:29:04.531Z,9.77
2019-05-12T20:31:35.475Z,9.71
2019-05-12T20:34:06.214Z,9.64
2019-05-12T20:36:34.403Z,9.53
2019-05-12T20:39:10.115Z,9.35
2019-05-12T20:41:36.411Z,9.29
2019-05-12T20:44:09.891Z,9.31
2019-05-12T20:46:35.692Z,9.23
2019-05-12T20:49:07.554Z,9.29
2019-05-12T20:51:34.874Z,9.27
2019-05-12T20:54:07.552Z,9.15
2019-05-12T20:56:34.439Z,9.04
2019-05-12T20:59:03.804Z,8.89
2019-05-12T21:01:33.604Z,8.82
2019-05-12T21:04:03.678Z,8.84
2019-05-12T21:06:40.972Z,8.77
2019-05-12T21:09:05.233Z,8.72
2019-05-12T21:11:33.951Z,8.61
2019-05-12T21:14:09.797Z,8.50
2019-05-12T21:16:38.033Z,8.53
2019-05-12T21:19:10.659Z,8.50
2019-05-12T21:21:38.460Z,8.47
2019-05-12T21:24:05.261Z,8.38
2019-05-12T21:26:37.762Z,8.34
2019-05-12T21:29:04.813Z,8.28
2019-05-12T21:31:33.862Z,8.18
2019-05-12T21:34:06.102Z,8.13
2019-05-12T21:36:33.953Z,8.16
2019-05-12T21:39:10.264Z,8.10
2019-05-12T21:41:40.600Z,8.06
2019-05-12T21:44:11.008Z,8.07
2019-05-12T21:46:38.361Z,7.92
2019-05-12T21:49:10.476Z,7.88
2019-05-12T21:51:38.042Z,7.95
2019-05-12T21:54:06.808Z,7.93
2019-05-12T21:56:43.948Z,7.86
2019-05-12T21:59:05.839Z,7.80
2019-05-12T22:01:42.964Z,7.77
2019-05-12T22:04:05.596Z,7.67
2019-05-12T22:06:34.578Z,7.66
2019-05-12T22:09:05.483Z,7.57
2019-05-12T22:11:34.746Z,7.64
2019-05-12T22:14:04.586Z,7.58
2019-05-12T22:16:43.209Z,7.59
2019-05-12T22:19:06.057Z,7.46
2019-05-12T22:21:35.760Z,7.45
2019-05-12T22:24:06.240Z,7.41
2019-05-12T22:26:39.559Z,7.34
2019-05-12T22:29:05.460Z,7.40
2019-05-12T22:31:38.478Z,7.33
2019-05-12T22:34:04.641Z,7.34
2019-05-12T22:36:33.694Z,7.32
2019-05-12T22:39:05.106Z,7.20
2019-05-12T22:41:36.854Z,7.19
2019-05-12T22:44:04.473Z,7.09
2019-05-12T22:46:35.242Z,7.03
2019-05-12T22:49:04.193Z,7.01
2019-05-12T22:51:32.887Z,6.96
2019-05-12T22:54:06.868Z,6.92
2019-05-12T22:56:34.287Z,6.97
2019-05-12T22:59:04.587Z,6.84
2019-05-12T23:01:41.223Z,6.79
2019-05-12T23:04:04.008Z,6.82
2019-05-12T23:06:41.070Z,6.72
2019-05-12T23:09:05.524Z,6.55
2019-05-12T23:11:37.770Z,6.56
2019-05-12T23:14:04.714Z,6.53
2019-05-12T23:16:33.630Z,6.55
2019-05-12T23:19:10.282Z,6.61
2019-05-12T23:21:32.939Z,6.49
2019-05-12T23:24:03.643Z,6.39
2019-05-12T23:26:35.520Z,6.24
2019-05-12T23:29:04.227Z,6.16
2019-05-12T23:31:34.052Z,6.16
2019-05-12T23:34:06.471Z,6.07
2019-05-12T23:36:36.708Z,6.00
2019-05-12T23:39:05.904Z,5.82
2019-05-12T23:41:34.558Z,5.80
2019-05-12T23:44:04.221Z,5.97
2019-05-12T23:46:34.264Z,5.93
2019-05-12T23:49:03.785Z,5.83
2019-05-12T23:51:34.078Z,5.67
2019-05-12T23:54:03.834Z,5.51
2019-05-12T23:56:33.735Z,5.54
2019-05-12T23:59:04.541Z,5.37
